Time;durP1;ratioP1;P1;durP2;ratioP2;P2;SDS_P1;SDS_P2;PMS_P1;PMS_P2;Temp;Humidity;BMP_temperature;BMP_pressure;BME280_temperature;BME280_humidity;BME280_pressure;Samples;Min_cycle;Max_cycle;Signal;HPM_P1;HPM_P2
2023/09/20 00:00:20;;;;;;;2.57;1.40;;;16.60;99.90;;;;;;5082819;28;20194;-52
2023/09/20 00:02:50;;;;;;;2.17;0.97;;;16.60;99.90;;;;;;5079111;28;20709;-54
2023/09/20 00:05:21;;;;;;;2.23;1.30;;;16.70;99.90;;;;;;5082193;28;20214;-51
2023/09/20 00:07:48;;;;;;;1.73;1.30;;;16.70;99.90;;;;;;5050105;28;20238;-53
2023/09/20 00:10:15;;;;;;;3.30;1.20;;;16.80;99.90;;;;;;5080216;28;20283;-53
2023/09/20 00:12:44;;;;;;;4.63;1.50;;;16.80;99.90;;;;;;5080307;28;20194;-54
2023/09/20 00:15:11;;;;;;;5.50;1.57;;;16.90;99.90;;;;;;5081878;28;20218;-50
2023/09/20 00:17:39;;;;;;;2.77;1.30;;;16.90;99.90;;;;;;5078199;28;20198;-53
2023/09/20 00:20:13;;;;;;;2.87;1.40;;;16.90;99.90;;;;;;5081090;28;20194;-52
2023/09/20 00:22:41;;;;;;;3.00;1.73;;;16.90;99.90;;;;;;5080433;28;20217;-55
2023/09/20 00:25:10;;;;;;;4.53;1.30;;;17.00;99.90;;;;;;5050836;28;20851;-53
2023/09/20 00:27:38;;;;;;;4.97;1.40;;;17.00;99.90;;;;;;5080310;28;20684;-53
2023/09/20 00:30:09;;;;;;;6.17;1.40;;;17.00;99.90;;;;;;5079721;28;20729;-52
2023/09/20 00:32:41;;;;;;;1.83;1.07;;;17.00;99.90;;;;;;5080729;28;20206;-53
2023/09/20 00:35:10;;;;;;;2.30;0.97;;;17.10;99.90;;;;;;5080882;28;20310;-52
2023/09/20 00:37:38;;;;;;;3.53;1.10;;;17.10;99.90;;;;;;5080524;28;20213;-53
2023/09/20 00:40:13;;;;;;;2.80;1.10;;;17.20;99.90;;;;;;5048163;28;20297;-52
2023/09/20 00:42:40;;;;;;;1.87;1.03;;;17.20;99.90;;;;;;5079621;28;20742;-54
2023/09/20 00:45:08;;;;;;;2.47;1.07;;;17.20;99.90;;;;;;5080648;28;20221;-50
2023/09/20 00:47:35;;;;;;;6.10;1.37;;;17.20;99.90;;;;;;5079047;28;20224;-52
2023/09/20 00:50:05;;;;;;;3.37;1.10;;;17.20;99.90;;;;;;5078528;28;20230;-51
2023/09/20 00:52:32;;;;;;;2.40;1.13;;;17.30;99.90;;;;;;5068003;28;20215;-51
2023/09/20 00:54:58;;;;;;;5.13;1.20;;;17.30;99.90;;;;;;5051071;28;20218;-51
2023/09/20 00:57:27;;;;;;;2.90;1.10;;;17.30;99.90;;;;;;5078260;28;20277;-54
2023/09/20 00:59:55;;;;;;;3.70;1.00;;;17.30;99.90;;;;;;5079684;28;20202;-54
2023/09/20 01:02:22;;;;;;;3.60;1.17;;;17.30;99.90;;;;;;5076212;28;20235;-50
2023/09/20 01:04:50;;;;;;;3.77;1.20;;;17.30;99.90;;;;;;5081858;28;20341;-51
2023/09/20 01:07:19;;;;;;;2.57;1.10;;;17.30;99.90;;;;;;5077659;28;20197;-54
2023/09/20 01:09:48;;;;;;;4.60;1.47;;;17.30;99.90;;;;;;5052345;28;20214;-49
2023/09/20 01:12:15;;;;;;;4.70;1.40;;;17.30;99.90;;;;;;5079588;28;21155;-53
2023/09/20 01:14:42;;;;;;;4.00;1.43;;;17.30;99.90;;;;;;5079547;28;20251;-51
2023/09/20 01:17:10;;;;;;;2.70;1.03;;;17.30;99.90;;;;;;5079271;28;20255;-52
2023/09/20 01:19:38;;;;;;;2.63;1.33;;;17.30;99.90;;;;;;5078487;28;20186;-52
2023/09/20 01:22:06;;;;;;;2.80;1.00;;;17.40;99.90;;;;;;5080201;28;20202;-52
2023/09/20 01:24:34;;;;;;;2.70;1.03;;;17.30;99.90;;;;;;5078770;28;20201;-54
2023/09/20 01:27:05;;;;;;;2.23;1.20;;;17.40;99.90;;;;;;5049179;28;20206;-53
2023/09/20 01:29:33;;;;;;;3.50;1.07;;;17.40;99.90;;;;;;5078245;28;20194;-51
2023/09/20 01:32:03;;;;;;;5.23;1.20;;;17.40;99.90;;;;;;5080801;28;20202;-52
2023/09/20 01:34:31;;;;;;;3.07;1.00;;;17.40;99.90;;;;;;5076799;28;20255;-50
2023/09/20 01:36:59;;;;;;;4.57;1.30;;;17.40;99.90;;;;;;5080343;28;20214;-51
2023/09/20 01:39:27;;;;;;;1.53;0.90;;;17.40;99.90;;;;;;5077122;28;20854;-50
2023/09/20 01:41:56;;;;;;;3.03;1.27;;;17.40;99.90;;;;;;5050088;28;20233;-49
2023/09/20 01:44:23;;;;;;;3.43;1.33;;;17.40;99.90;;;;;;5076216;28;20198;-50
2023/09/20 01:46:49;;;;;;;3.60;1.63;;;17.40;99.90;;;;;;5081131;28;20209;-48
2023/09/20 01:49:18;;;;;;;4.40;1.40;;;17.50;99.90;;;;;;5077310;28;20190;-54
2023/09/20 01:51:45;;;;;;;5.80;1.80;;;17.50;99.90;;;;;;5081011;28;20214;-52
2023/09/20 01:54:11;;;;;;;2.63;1.20;;;17.50;99.90;;;;;;5078132;28;20190;-54
2023/09/20 01:56:41;;;;;;;1.97;1.13;;;17.50;99.90;;;;;;5050054;28;20222;-53
2023/09/20 01:59:09;;;;;;;3.27;1.57;;;17.50;99.90;;;;;;5079255;28;20240;-54
2023/09/20 02:01:37;;;;;;;3.33;1.20;;;17.50;99.90;;;;;;5076692;28;20264;-49
2023/09/20 02:04:05;;;;;;;5.17;1.40;;;17.50;99.90;;;;;;5080893;28;20190;-51
2023/09/20 02:06:32;;;;;;;3.70;1.47;;;17.50;99.90;;;;;;5077917;28;20206;-50
2023/09/20 02:08:59;;;;;;;4.40;1.40;;;17.50;99.90;;;;;;5081443;28;20194;-55
2023/09/20 02:11:26;;;;;;;7.07;1.47;;;17.60;99.90;;;;;;5077363;28;20212;-48
2023/09/20 02:13:54;;;;;;;1.70;1.20;;;17.60;99.90;;;;;;5048438;28;20206;-53
2023/09/20 02:16:22;;;;;;;3.93;1.83;;;17.60;99.90;;;;;;5076594;28;20210;-53
2023/09/20 02:18:49;;;;;;;4.97;1.60;;;17.60;99.90;;;;;;5074222;28;20202;-52
2023/09/20 02:21:16;;;;;;;4.83;1.83;;;17.60;99.90;;;;;;5082242;28;20410;-49
2023/09/20 02:23:42;;;;;;;3.57;1.17;;;17.60;99.90;;;;;;5084738;28;20206;-50
2023/09/20 02:26:10;;;;;;;4.43;1.33;;;17.60;99.90;;;;;;5081134;28;20270;-50
2023/09/20 02:28:36;;;;;;;4.07;1.40;;;17.60;99.90;;;;;;5054681;28;20328;-49
2023/09/20 02:31:05;;;;;;;4.63;1.93;;;17.60;99.90;;;;;;5081164;28;20275;-51
2023/09/20 02:33:32;;;;;;;7.83;1.60;;;17.60;99.90;;;;;;5083926;28;20224;-52
2023/09/20 02:35:58;;;;;;;2.27;1.47;;;17.60;99.90;;;;;;5080102;28;20218;-52
2023/09/20 02:38:28;;;;;;;2.90;1.50;;;17.60;99.90;;;;;;5082228;28;20190;-48
2023/09/20 02:40:57;;;;;;;4.60;1.60;;;17.60;99.90;;;;;;5082141;28;20598;-55
2023/09/20 02:43:26;;;;;;;2.20;1.50;;;17.60;99.90;;;;;;5081040;28;20204;-54
2023/09/20 02:45:54;;;;;;;5.20;1.63;;;17.60;99.90;;;;;;5049119;28;20588;-54
2023/09/20 02:48:24;;;;;;;2.60;1.20;;;17.60;99.90;;;;;;5079867;28;20198;-50
2023/09/20 02:50:51;;;;;;;4.17;1.50;;;17.60;99.90;;;;;;5081873;28;20309;-54
2023/09/20 02:53:18;;;;;;;2.77;1.47;;;17.60;99.90;;;;;;5081151;28;20267;-54
2023/09/20 02:55:46;;;;;;;2.73;1.40;;;17.60;99.90;;;;;;5081699;28;20644;-52
2023/09/20 02:58:13;;;;;;;3.67;1.40;;;17.60;99.90;;;;;;5078955;28;20243;-50
2023/09/20 03:00:46;;;;;;;2.73;1.47;;;17.60;99.90;;;;;;5051790;28;20604;-54
2023/09/20 03:03:15;;;;;;;2.67;1.27;;;17.50;99.90;;;;;;5079793;28;20206;-54
2023/09/20 03:05:44;;;;;;;4.57;1.87;;;17.50;99.90;;;;;;5082481;28;20582;-52
2023/09/20 03:08:11;;;;;;;5.33;1.47;;;17.50;99.90;;;;;;5080204;28;20465;-53
2023/09/20 03:10:41;;;;;;;3.53;1.83;;;17.40;99.90;;;;;;5068030;28;20276;-55
2023/09/20 03:13:12;;;;;;;1.87;1.30;;;17.40;99.90;;;;;;5081104;28;20197;-53
2023/09/20 03:15:43;;;;;;;2.53;1.30;;;17.40;99.90;;;;;;5048551;28;20275;-51
2023/09/20 03:18:13;;;;;;;4.17;2.00;;;17.40;99.90;;;;;;5082885;28;20202;-48
2023/09/20 03:20:43;;;;;;;2.40;1.33;;;17.30;99.90;;;;;;5078293;28;20202;-49
2023/09/20 03:23:13;;;;;;;3.47;1.53;;;17.40;99.90;;;;;;5082394;28;20235;-47
2023/09/20 03:25:41;;;;;;;4.80;1.57;;;17.30;99.90;;;;;;5077911;28;20228;-53
2023/09/20 03:28:19;;;;;;;3.17;1.80;;;17.30;99.90;;;;;;5082167;28;20313;-54
2023/09/20 03:30:51;;;;;;;3.37;1.77;;;17.30;99.90;;;;;;5049876;28;20233;-48
2023/09/20 03:33:20;;;;;;;4.90;1.57;;;17.30;99.90;;;;;;5082311;28;20230;-54
2023/09/20 03:35:47;;;;;;;4.47;1.73;;;17.30;99.90;;;;;;5078534;28;20360;-51
2023/09/20 03:38:15;;;;;;;3.57;1.67;;;17.40;99.90;;;;;;5083297;28;20193;-52
2023/09/20 03:40:43;;;;;;;2.93;1.53;;;17.40;99.90;;;;;;5078105;28;20882;-53
2023/09/20 03:43:10;;;;;;;5.23;1.77;;;17.40;99.90;;;;;;5082259;28;20194;-49
2023/09/20 03:45:43;;;;;;;2.50;1.23;;;17.40;99.90;;;;;;5047978;28;25629;-48
2023/09/20 03:48:09;;;;;;;2.77;1.70;;;17.40;99.90;;;;;;5082071;28;20194;-53
2023/09/20 03:50:37;;;;;;;6.03;1.53;;;17.40;99.90;;;;;;5079646;28;20728;-53
2023/09/20 03:53:04;;;;;;;5.03;1.97;;;17.40;99.90;;;;;;5081767;28;20279;-52
2023/09/20 03:55:33;;;;;;;3.40;1.70;;;17.40;99.90;;;;;;5079085;28;20214;-51
2023/09/20 03:58:00;;;;;;;4.00;1.67;;;17.40;99.90;;;;;;5081083;28;20186;-51
2023/09/20 04:00:28;;;;;;;4.13;1.80;;;17.50;99.90;;;;;;5081696;28;20200;-54
2023/09/20 04:02:55;;;;;;;3.97;1.43;;;17.50;99.90;;;;;;5048760;28;20194;-51
2023/09/20 04:05:24;;;;;;;6.50;2.27;;;17.50;99.90;;;;;;5075796;28;20261;-55
2023/09/20 04:07:51;;;;;;;5.33;1.60;;;17.50;99.90;;;;;;5079117;28;20918;-51
2023/09/20 04:10:18;;;;;;;6.30;1.73;;;17.50;99.90;;;;;;5075880;28;20210;-49
2023/09/20 04:12:48;;;;;;;5.83;1.70;;;17.50;99.90;;;;;;5077528;28;20206;-48
2023/09/20 04:15:16;;;;;;;5.37;1.57;;;17.50;99.90;;;;;;5067394;28;20354;-49
2023/09/20 04:17:43;;;;;;;2.13;1.43;;;17.50;99.90;;;;;;5046606;28;20202;-53
2023/09/20 04:20:11;;;;;;;3.67;1.40;;;17.50;99.90;;;;;;5073230;28;20198;-53
2023/09/20 04:22:40;;;;;;;5.33;1.73;;;17.50;99.90;;;;;;5080419;28;20679;-50
2023/09/20 04:25:10;;;;;;;3.57;1.57;;;17.60;99.90;;;;;;5076929;28;20217;-53
2023/09/20 04:27:38;;;;;;;4.70;1.70;;;17.50;99.90;;;;;;5078165;28;20569;-49
2023/09/20 04:30:08;;;;;;;4.13;1.77;;;17.60;99.90;;;;;;5080237;28;20193;-53
2023/09/20 04:32:36;;;;;;;5.03;1.70;;;17.60;99.90;;;;;;5065980;28;22046;-47
2023/09/20 04:35:06;;;;;;;4.87;1.70;;;17.60;99.90;;;;;;5077947;28;20222;-52
2023/09/20 04:37:33;;;;;;;2.57;1.80;;;17.60;99.90;;;;;;5073596;28;20225;-52
2023/09/20 04:40:00;;;;;;;4.70;1.63;;;17.60;99.90;;;;;;5079983;28;20269;-53
2023/09/20 04:42:32;;;;;;;4.40;1.47;;;17.60;99.90;;;;;;5069905;28;20909;-49
2023/09/20 04:44:59;;;;;;;5.67;1.90;;;17.60;99.90;;;;;;5076348;28;20241;-54
2023/09/20 04:47:31;;;;;;;4.50;1.60;;;17.60;99.90;;;;;;5069176;28;20202;-48
2023/09/20 04:49:59;;;;;;;4.20;1.70;;;17.60;99.90;;;;;;5048882;28;20219;-50
2023/09/20 04:52:25;;;;;;;3.97;1.70;;;17.60;99.90;;;;;;5072545;28;20259;-52
2023/09/20 04:54:52;;;;;;;4.03;1.63;;;17.60;99.90;;;;;;5073865;28;20194;-50
2023/09/20 04:57:19;;;;;;;6.47;1.70;;;17.60;99.90;;;;;;5068681;28;20202;-50
2023/09/20 04:59:47;;;;;;;6.23;1.37;;;17.60;99.90;;;;;;5071935;28;20204;-49
2023/09/20 05:02:14;;;;;;;4.47;1.63;;;17.70;99.90;;;;;;5078531;28;20809;-49
2023/09/20 05:04:42;;;;;;;5.73;2.03;;;17.60;99.90;;;;;;5048668;28;20198;-47
2023/09/20 05:07:09;;;;;;;4.47;2.00;;;17.60;99.90;;;;;;5072016;28;20202;-54
2023/09/20 05:09:38;;;;;;;4.33;1.83;;;17.70;99.90;;;;;;5080374;28;20198;-50
2023/09/20 05:12:09;;;;;;;3.57;1.63;;;17.70;99.90;;;;;;5077296;28;20217;-54
2023/09/20 05:14:36;;;;;;;5.27;1.97;;;17.70;99.90;;;;;;5072708;28;20293;-51
2023/09/20 05:17:04;;;;;;;5.13;2.00;;;17.70;99.90;;;;;;5075932;28;20656;-51
2023/09/20 05:19:31;;;;;;;2.80;1.70;;;17.70;99.90;;;;;;5045273;28;20210;-49
2023/09/20 05:22:00;;;;;;;6.90;1.80;;;17.70;99.90;;;;;;5072656;28;20760;-53
2023/09/20 05:24:27;;;;;;;5.17;1.60;;;17.70;99.90;;;;;;5071936;28;21579;-47
2023/09/20 05:26:54;;;;;;;4.33;1.57;;;17.70;99.90;;;;;;5079583;28;20221;-54
2023/09/20 05:29:21;;;;;;;6.80;2.20;;;17.70;99.90;;;;;;5069540;28;20194;-55
2023/09/20 05:31:49;;;;;;;2.87;1.90;;;17.70;99.90;;;;;;5071488;28;20236;-50
2023/09/20 05:34:16;;;;;;;4.27;2.17;;;17.70;99.90;;;;;;5067451;28;20202;-53
2023/09/20 05:36:45;;;;;;;4.17;1.60;;;17.70;99.90;;;;;;5036831;28;20202;-49
2023/09/20 05:39:14;;;;;;;3.43;1.30;;;17.70;99.90;;;;;;5080040;28;20206;-50
2023/09/20 05:41:41;;;;;;;3.47;1.50;;;17.70;99.90;;;;;;5076664;28;20240;-50
2023/09/20 05:44:09;;;;;;;5.37;2.03;;;17.70;99.90;;;;;;5080460;28;20202;-53
2023/09/20 05:46:36;;;;;;;4.30;1.80;;;17.70;99.90;;;;;;5069125;28;20214;-53
2023/09/20 05:49:03;;;;;;;4.20;1.57;;;17.80;99.90;;;;;;5082110;28;20251;-51
2023/09/20 05:51:30;;;;;;;3.20;1.60;;;17.80;99.90;;;;;;5047093;28;20229;-53
2023/09/20 05:53:57;;;;;;;4.63;1.70;;;17.70;99.90;;;;;;5077449;28;20892;-49
2023/09/20 05:56:26;;;;;;;4.67;1.87;;;17.80;99.90;;;;;;5084709;28;20213;-52
2023/09/20 05:58:53;;;;;;;3.07;1.70;;;17.70;99.90;;;;;;5082767;28;20266;-53
2023/09/20 06:01:20;;;;;;;8.50;2.40;;;17.80;99.90;;;;;;5075616;28;20213;-54
2023/09/20 06:03:47;;;;;;;3.23;1.53;;;17.80;99.90;;;;;;5069733;28;20386;-50
2023/09/20 06:06:14;;;;;;;4.10;1.63;;;17.80;99.90;;;;;;5084998;28;20205;-51
2023/09/20 06:08:42;;;;;;;5.00;1.80;;;17.80;99.90;;;;;;5043818;28;20218;-50
2023/09/20 06:11:09;;;;;;;2.87;1.60;;;17.80;99.90;;;;;;5078956;28;20210;-53
2023/09/20 06:13:38;;;;;;;4.97;1.80;;;17.80;99.90;;;;;;5081660;28;20194;-53
2023/09/20 06:16:06;;;;;;;3.10;1.60;;;17.80;99.90;;;;;;5084975;28;20222;-52
2023/09/20 06:18:35;;;;;;;6.47;1.90;;;17.80;99.90;;;;;;5072829;28;20202;-53
2023/09/20 06:21:03;;;;;;;5.87;1.70;;;17.80;99.90;;;;;;5085010;28;20321;-51
2023/09/20 06:23:31;;;;;;;3.67;1.33;;;17.80;99.90;;;;;;5051960;28;20276;-55
2023/09/20 06:26:04;;;;;;;8.43;2.23;;;17.80;99.90;;;;;;5076764;28;20236;-53
2023/09/20 06:28:31;;;;;;;4.63;1.90;;;17.90;99.90;;;;;;5081902;28;20289;-54
2023/09/20 06:31:00;;;;;;;3.20;1.53;;;17.90;99.90;;;;;;5083639;28;20229;-52
2023/09/20 06:33:27;;;;;;;4.53;1.80;;;17.90;99.90;;;;;;5074562;28;20198;-55
2023/09/20 06:35:55;;;;;;;5.57;2.10;;;17.90;99.90;;;;;;5082206;28;20848;-52
2023/09/20 06:38:23;;;;;;;3.10;1.70;;;18.00;99.90;;;;;;5076471;28;20570;-52
2023/09/20 06:40:52;;;;;;;2.73;1.77;;;18.00;99.90;;;;;;5050493;28;20208;-53
2023/09/20 06:43:19;;;;;;;4.50;1.80;;;18.00;99.90;;;;;;5084518;28;20269;-54
2023/09/20 06:45:50;;;;;;;6.27;1.90;;;18.10;99.90;;;;;;5078518;28;20301;-52
2023/09/20 06:48:22;;;;;;;4.67;1.80;;;18.10;99.90;;;;;;5075464;28;20688;-52
2023/09/20 06:50:49;;;;;;;5.00;1.23;;;18.10;99.90;;;;;;5080678;28;20275;-48
2023/09/20 06:53:17;;;;;;;3.70;1.50;;;18.10;99.90;;;;;;5084450;28;20222;-49
2023/09/20 06:55:44;;;;;;;2.90;1.60;;;18.20;99.90;;;;;;5043917;28;20218;-53
2023/09/20 06:58:11;;;;;;;3.70;1.67;;;18.20;99.90;;;;;;5084201;28;20610;-54
2023/09/20 07:00:37;;;;;;;8.40;1.93;;;18.20;99.90;;;;;;5079828;28;20202;-52
2023/09/20 07:03:05;;;;;;;3.83;1.30;;;18.20;99.90;;;;;;5072160;28;20191;-53
2023/09/20 07:05:33;;;;;;;4.50;1.50;;;18.20;99.90;;;;;;5078309;28;20263;-53
2023/09/20 07:08:00;;;;;;;3.57;1.77;;;18.20;99.90;;;;;;5082417;28;20255;-51
2023/09/20 07:10:29;;;;;;;5.87;1.70;;;18.20;99.90;;;;;;5044316;28;20207;-51
2023/09/20 07:12:56;;;;;;;3.93;1.70;;;18.20;99.90;;;;;;5077335;28;20291;-50
2023/09/20 07:15:24;;;;;;;3.63;1.60;;;18.20;99.90;;;;;;5081465;28;20235;-55
2023/09/20 07:17:58;;;;;;;3.77;1.50;;;18.20;99.90;;;;;;5078583;28;20276;-51
2023/09/20 07:20:25;;;;;;;3.37;1.77;;;18.30;99.90;;;;;;5072714;28;20205;-54
2023/09/20 07:22:53;;;;;;;5.27;2.00;;;18.30;99.90;;;;;;5081709;28;20316;-53
2023/09/20 07:25:20;;;;;;;4.40;2.10;;;18.30;99.90;;;;;;5081031;28;20209;-51
2023/09/20 07:27:49;;;;;;;3.93;1.87;;;18.30;99.90;;;;;;5050392;28;20197;-48
2023/09/20 07:30:19;;;;;;;4.60;1.80;;;18.40;99.90;;;;;;5083714;28;20206;-50
2023/09/20 07:32:47;;;;;;;5.20;1.80;;;18.40;99.90;;;;;;5080104;28;20206;-53
2023/09/20 07:35:26;;;;;;;3.47;1.60;;;18.50;99.90;;;;;;5074401;28;20692;-49
2023/09/20 07:37:58;;;;;;;4.13;1.97;;;18.50;99.90;;;;;;5080976;28;20267;-48
2023/09/20 07:40:29;;;;;;;5.27;2.10;;;18.50;99.90;;;;;;5081231;28;20190;-53
2023/09/20 07:43:04;;;;;;;3.50;1.57;;;18.60;99.90;;;;;;5044723;28;20323;-47
2023/09/20 07:45:34;;;;;;;4.50;2.00;;;18.60;99.90;;;;;;5081260;28;20297;-52
2023/09/20 07:48:02;;;;;;;3.83;1.77;;;18.60;99.90;;;;;;5080820;28;20251;-47
2023/09/20 07:50:30;;;;;;;5.13;1.83;;;18.60;99.90;;;;;;5068200;28;20237;-53
2023/09/20 07:53:00;;;;;;;3.40;1.80;;;18.60;99.90;;;;;;5081895;28;20981;-51
2023/09/20 07:55:27;;;;;;;5.83;1.57;;;18.60;99.90;;;;;;5081427;28;20305;-52
2023/09/20 07:57:58;;;;;;;4.27;1.57;;;18.60;99.90;;;;;;5050361;28;21494;-49
2023/09/20 08:00:26;;;;;;;4.17;2.13;;;18.60;99.90;;;;;;5082110;28;20208;-54
2023/09/20 08:02:54;;;;;;;4.23;1.80;;;18.70;99.90;;;;;;5080775;28;20186;-52
2023/09/20 08:05:23;;;;;;;4.20;1.73;;;18.70;99.90;;;;;;5071720;28;20217;-49
2023/09/20 08:07:49;;;;;;;6.10;1.90;;;18.70;99.90;;;;;;5079826;28;20217;-49
2023/09/20 08:10:19;;;;;;;5.37;1.80;;;18.80;99.90;;;;;;5082925;28;20240;-51
2023/09/20 08:12:46;;;;;;;5.60;1.97;;;18.80;99.90;;;;;;5078663;28;20214;-50
2023/09/20 08:15:13;;;;;;;4.83;2.03;;;18.90;99.90;;;;;;5053941;28;20240;-53
2023/09/20 08:20:26;;;;;;;4.03;1.77;;;19.10;99.90;;;;;;5078075;28;20192;-56
2023/09/20 09:01:38;;;;;;;2.53;1.43;;;20.00;99.90;;;;;;5039869;28;20309;-52
2023/09/20 09:04:08;;;;;;;3.33;1.50;;;20.00;99.90;;;;;;5079845;28;20197;-54
2023/09/20 09:06:35;;;;;;;4.73;1.57;;;20.10;99.90;;;;;;5077071;28;20221;-52
2023/09/20 09:09:02;;;;;;;4.07;1.50;;;20.10;99.90;;;;;;5073269;28;20216;-54
2023/09/20 09:11:30;;;;;;;2.93;1.50;;;20.10;99.90;;;;;;5079740;28;20194;-51
2023/09/20 09:13:58;;;;;;;4.67;2.07;;;20.10;99.90;;;;;;5080656;28;20205;-49
2023/09/20 09:16:27;;;;;;;3.03;1.33;;;20.10;99.90;;;;;;5051110;28;20587;-51
2023/09/20 09:18:55;;;;;;;2.77;1.30;;;20.10;99.90;;;;;;5079793;28;20255;-51
2023/09/20 09:21:22;;;;;;;3.60;1.53;;;20.10;99.90;;;;;;5079655;28;20206;-54
2023/09/20 09:23:50;;;;;;;4.33;1.50;;;20.20;99.90;;;;;;5072481;28;20251;-52
2023/09/20 09:26:17;;;;;;;4.07;1.37;;;20.30;99.90;;;;;;5085618;28;20221;-54
2023/09/20 09:28:46;;;;;;;3.50;1.37;;;20.30;99.90;;;;;;5082065;28;21038;-51
2023/09/20 09:31:16;;;;;;;3.53;1.60;;;20.30;99.90;;;;;;5055996;28;20205;-53
2023/09/20 09:33:43;;;;;;;3.73;1.40;;;20.40;99.90;;;;;;5082246;28;20916;-53
2023/09/20 09:36:12;;;;;;;2.10;1.17;;;20.30;99.90;;;;;;5085984;28;21048;-51
2023/09/20 09:38:41;;;;;;;3.67;1.33;;;20.30;99.90;;;;;;5072136;28;20209;-52
2023/09/20 09:41:08;;;;;;;2.60;1.30;;;20.30;99.90;;;;;;5084153;28;20198;-52
2023/09/20 09:43:36;;;;;;;3.20;1.50;;;20.40;99.90;;;;;;5082413;28;20247;-50
2023/09/20 09:46:08;;;;;;;3.90;1.47;;;20.40;99.90;;;;;;5084662;28;20297;-48
2023/09/20 09:48:38;;;;;;;2.03;1.20;;;20.40;99.90;;;;;;5054754;28;20213;-49
2023/09/20 09:51:06;;;;;;;2.77;1.60;;;20.50;99.90;;;;;;5085003;28;20198;-52
2023/09/20 09:53:39;;;;;;;3.77;1.50;;;20.50;99.90;;;;;;5073400;28;20696;-53
2023/09/20 09:56:07;;;;;;;4.10;1.50;;;20.50;99.90;;;;;;5083351;28;20591;-47
2023/09/20 09:58:34;;;;;;;1.83;1.20;;;20.40;99.90;;;;;;5082339;28;20194;-51
2023/09/20 10:01:05;;;;;;;3.50;1.63;;;20.50;99.90;;;;;;5084409;28;20274;-51
2023/09/20 10:03:41;;;;;;;3.20;1.80;;;20.50;99.90;;;;;;5052645;28;20318;-53
2023/09/20 10:06:12;;;;;;;2.20;1.40;;;20.50;99.90;;;;;;5083396;28;20209;-47
2023/09/20 10:08:40;;;;;;;3.13;1.33;;;20.60;99.90;;;;;;5072258;28;20197;-49
2023/09/20 10:11:08;;;;;;;2.47;1.20;;;20.60;99.90;;;;;;5085654;28;20205;-54
2023/09/20 10:13:36;;;;;;;2.87;1.47;;;20.60;99.90;;;;;;5081637;28;20575;-50
2023/09/20 10:16:10;;;;;;;7.47;1.52;;;20.60;99.90;;;;;;5084172;28;20218;-52
2023/09/20 10:18:56;;;;;;;2.30;1.23;;;20.60;99.90;;;;;;5051719;28;20211;-51
2023/09/20 10:21:25;;;;;;;3.23;1.70;;;20.60;99.90;;;;;;5073719;28;20281;-55
2023/09/20 10:23:57;;;;;;;2.63;1.03;;;20.60;99.90;;;;;;5073540;28;20458;-51
2023/09/20 10:26:26;;;;;;;1.77;1.27;;;20.50;99.90;;;;;;5082780;28;20217;-54
2023/09/20 10:28:57;;;;;;;2.53;1.50;;;20.60;99.90;;;;;;5082252;28;20390;-47
2023/09/20 10:31:24;;;;;;;3.40;1.37;;;20.60;99.90;;;;;;5083707;28;20243;-53
2023/09/20 10:33:55;;;;;;;4.77;1.23;;;20.70;99.90;;;;;;5052017;28;20306;-52
2023/09/20 10:36:25;;;;;;;2.97;1.37;;;20.80;99.90;;;;;;5083356;28;20348;-49
2023/09/20 10:39:14;;;;;;;2.47;1.60;;;20.80;99.90;;;;;;5082144;28;20190;-53
2023/09/20 10:41:41;;;;;;;4.13;1.67;;;20.90;99.90;;;;;;5072162;28;20198;-53
2023/09/20 10:44:08;;;;;;;3.13;1.50;;;20.90;99.90;;;;;;5082957;28;20559;-55
2023/09/20 10:46:37;;;;;;;2.42;1.52;;;21.00;99.90;;;;;;5080197;28;20255;-48
2023/09/20 10:49:06;;;;;;;5.33;2.00;;;21.00;99.90;;;;;;5054778;28;20198;-54
2023/09/20 10:51:43;;;;;;;2.23;2.03;;;21.00;99.90;;;;;;5080989;28;20866;-50
2023/09/20 10:54:25;;;;;;;2.60;1.55;;;21.00;99.90;;;;;;5082895;28;20206;-52
2023/09/20 10:57:11;;;;;;;3.75;2.22;;;21.00;99.90;;;;;;5076761;28;20202;-50
2023/09/20 10:59:40;;;;;;;3.17;1.80;;;21.00;99.90;;;;;;5080105;28;20194;-49
2023/09/20 11:02:12;;;;;;;3.80;1.77;;;21.00;99.90;;;;;;5083910;28;20198;-51
2023/09/20 11:04:41;;;;;;;4.47;2.00;;;21.20;99.90;;;;;;5050352;28;20198;-50
2023/09/20 11:07:09;;;;;;;3.22;1.92;;;21.50;99.90;;;;;;5084573;28;20559;-47
2023/09/20 11:09:38;;;;;;;5.28;2.38;;;21.70;99.90;;;;;;5079126;28;20194;-59
2023/09/20 11:12:11;;;;;;;4.22;1.65;;;21.70;99.90;;;;;;5075444;28;20190;-45
2023/09/20 11:14:40;;;;;;;4.40;2.17;;;21.70;99.90;;;;;;5079813;28;20831;-55
2023/09/20 11:17:07;;;;;;;4.35;1.77;;;21.70;99.90;;;;;;5083926;28;20194;-46
2023/09/20 11:19:35;;;;;;;4.75;2.00;;;21.60;99.90;;;;;;5056725;28;20202;-61
2023/09/20 11:22:04;;;;;;;4.25;1.98;;;21.70;99.90;;;;;;5080901;28;20321;-51
2023/09/20 11:24:32;;;;;;;2.92;1.75;;;21.70;99.90;;;;;;5073919;28;20198;-58
2023/09/20 11:27:00;;;;;;;8.02;2.10;;;21.70;99.90;;;;;;5072566;28;20229;-45
2023/09/20 11:29:26;;;;;;;4.97;1.90;;;21.70;99.90;;;;;;5081147;28;20239;-58
2023/09/20 11:31:58;;;;;;;3.72;2.42;;;21.70;99.90;;;;;;5081729;28;20186;-50
2023/09/20 11:34:28;;;;;;;5.05;2.50;;;21.70;99.90;;;;;;5071806;28;20210;-60
2023/09/20 11:36:55;;;;;;;7.60;2.60;;;21.80;99.90;;;;;;5068554;28;20286;-48
2023/09/20 11:39:34;;;;;;;4.80;2.20;;;22.00;99.90;;;;;;5081028;28;20242;-62
2023/09/20 11:42:03;;;;;;;6.55;2.33;;;22.10;99.90;;;;;;5074267;28;20239;-48
2023/09/20 11:44:35;;;;;;;6.43;2.38;;;22.10;99.90;;;;;;5081486;28;20198;-59
2023/09/20 11:47:03;;;;;;;4.20;2.00;;;22.10;99.90;;;;;;5082603;28;20297;-53
2023/09/20 11:49:30;;;;;;;4.93;2.50;;;22.20;99.90;;;;;;5080288;28;20690;-61
2023/09/20 11:51:58;;;;;;;3.35;2.15;;;22.20;99.90;;;;;;5051427;28;20300;-48
2023/09/20 11:54:33;;;;;;;5.53;2.00;;;22.30;99.90;;;;;;5081855;28;20594;-59
2023/09/20 11:57:01;;;;;;;2.20;1.70;;;22.40;99.90;;;;;;5072448;28;20782;-47
2023/09/20 11:59:28;;;;;;;2.78;1.73;;;22.50;99.90;;;;;;5081458;28;20679;-58
2023/09/20 12:01:55;;;;;;;5.07;2.20;;;22.70;99.90;;;;;;5081349;28;20269;-46
2023/09/20 12:04:22;;;;;;;4.05;1.95;;;22.80;99.90;;;;;;5081286;28;20190;-58
2023/09/20 12:06:50;;;;;;;2.20;1.70;;;22.80;99.90;;;;;;5048483;28;20236;-48
2023/09/20 12:09:18;;;;;;;2.85;1.90;;;22.80;99.90;;;;;;5078465;28;20278;-45
2023/09/20 12:11:47;;;;;;;4.60;2.35;;;22.70;99.90;;;;;;5082359;28;20194;-48
2023/09/20 12:14:14;;;;;;;3.80;1.60;;;22.60;99.90;;;;;;5070394;28;20218;-59
2023/09/20 12:16:47;;;;;;;7.85;2.50;;;22.50;99.90;;;;;;5081503;28;20792;-51
2023/09/20 12:19:15;;;;;;;2.22;1.80;;;22.60;99.90;;;;;;5077930;28;20249;-58
2023/09/20 12:21:42;;;;;;;2.83;1.80;;;22.70;99.90;;;;;;5052781;28;20236;-47
2023/09/20 12:24:09;;;;;;;4.18;2.22;;;22.70;99.90;;;;;;5080428;28;20244;-61
2023/09/20 12:26:36;;;;;;;2.28;1.98;;;22.60;99.90;;;;;;5079640;28;20201;-45
2023/09/20 12:29:06;;;;;;;3.88;2.40;;;22.60;99.90;;;;;;5049879;28;20558;-47
2023/09/20 12:31:32;;;;;;;7.38;1.70;;;22.70;99.90;;;;;;5078118;28;20239;-60
2023/09/20 12:34:00;;;;;;;3.63;2.10;;;22.80;99.90;;;;;;5071151;28;20848;-52
2023/09/20 12:36:28;;;;;;;3.00;1.75;;;22.80;99.90;;;;;;5067401;28;20226;-62
2023/09/20 12:38:55;;;;;;;2.83;1.75;;;22.80;99.90;;;;;;5065294;28;20354;-45
2023/09/20 12:41:24;;;;;;;5.85;2.15;;;22.90;99.90;;;;;;5078835;28;20194;-60
2023/09/20 12:43:51;;;;;;;3.25;2.35;;;23.00;99.90;;;;;;5068913;28;20195;-45
2023/09/20 12:46:20;;;;;;;4.72;2.22;;;23.30;99.90;;;;;;5081528;28;20917;-49
2023/09/20 12:48:48;;;;;;;4.70;2.00;;;23.40;99.90;;;;;;5077386;28;20197;-60
2023/09/20 12:51:17;;;;;;;3.45;1.80;;;23.30;99.90;;;;;;5070704;28;20575;-51
2023/09/20 12:53:44;;;;;;;4.57;2.10;;;23.20;99.90;;;;;;5048205;28;20898;-54
2023/09/20 12:56:11;;;;;;;4.50;2.15;;;23.20;99.90;;;;;;5081623;28;20271;-46
2023/09/20 12:58:38;;;;;;;5.03;2.40;;;23.30;99.90;;;;;;5057790;28;21285;-52
2023/09/20 13:01:07;;;;;;;6.35;2.20;;;23.30;99.90;;;;;;5070475;28;20573;-57
2023/09/20 13:03:46;;;;;;;3.83;2.17;;;23.40;99.90;;;;;;5052334;28;20206;-46
2023/09/20 13:06:17;;;;;;;4.35;2.20;;;23.40;99.90;;;;;;5070467;28;20217;-55
2023/09/20 13:08:57;;;;;;;3.53;2.10;;;23.30;99.90;;;;;;5041629;28;24861;-47
2023/09/20 13:11:34;;;;;;;3.80;2.00;;;23.20;99.90;;;;;;5076322;28;20201;-58
2023/09/20 13:14:05;;;;;;;5.65;2.28;;;23.00;99.90;;;;;;5081759;28;20267;-46
2023/09/20 13:17:04;;;;;;;3.47;2.05;;;22.80;99.90;;;;;;5068113;28;20304;-47
2023/09/20 13:19:33;;;;;;;4.10;1.92;;;22.80;99.90;;;;;;5068369;28;20198;-52
2023/09/20 13:22:08;;;;;;;9.32;2.30;;;22.90;99.90;;;;;;5072475;28;20255;-45
2023/09/20 13:24:50;;;;;;;2.92;2.47;;;22.90;99.90;;;;;;5038367;28;20214;-45
2023/09/20 13:27:33;;;;;;;4.15;2.35;;;23.50;99.90;;;;;;5077664;28;20275;-50
2023/09/20 13:30:10;;;;;;;3.45;1.70;;;23.70;99.90;;;;;;5072374;28;20217;-49
2023/09/20 13:32:58;;;;;;;5.70;2.38;;;23.90;99.90;;;;;;5078405;28;20182;-48
2023/09/20 13:38:15;;;;;;;3.33;1.90;;;;;;;;;;5058851;28;20290;-52
2023/09/20 13:40:42;;;;;;;2.55;1.83;;;25.00;99.90;;;;;;5043145;28;20198;-47